KLAW

Lawton-Fort Sill Regional Airport

Lawton, Oklahoma, USA
METAR KLAW 191153Z AUTO 00000KT 3SM BR FEW120 05/05 A2983 RMK AO2 SLP104 T00500050 10083 20039 56016
Observed Flight Rules
Dec-19 @ 11:53 UTC (43 minutes ago) Marginal Visual Flight Rules
Visibility Clouds Conditions
3 miles
  • Few at 12,000' AGL
  • Mist
Temperatures Readings
Current 5°C / 41°F
Dewpoint 5°C / 41°F
Humidity 100%
Altimeter 29.83" Hg
Pressure 1010.4 hPa
Elevation 337
METAR KLAW 191153Z AUTO 00000KT 3SM BR FEW120 05/05 A2983 RMK AO2 SLP104 T00500050 10083 20039 56016
Observed Flight Rules
Dec-19 @ 11:53 UTC
(43 minutes ago)
MVFR
Clouds
  • Few at 12,000' AGL
Conditions
  • Mist
Temperature Dewpoint
5°C / 41°F 5°C / 41°F
Humidity Altimeter Pressure
100% 29.83" Hg 1010.4 hPa